createdAt,value
2023-05-02T00:00:14.871Z,47.09
2023-05-02T00:02:41.834Z,46.96
2023-05-02T00:05:08.866Z,47.05
2023-05-02T00:07:36.283Z,47.28
2023-05-02T00:10:03.556Z,47.35
2023-05-02T00:12:30.576Z,47.71
2023-05-02T00:14:57.513Z,47.89
2023-05-02T00:17:24.412Z,47.88
2023-05-02T00:19:51.417Z,47.98
2023-05-02T00:22:18.254Z,48.02
2023-05-02T00:24:45.198Z,48.01
2023-05-02T00:27:12.098Z,48.04
2023-05-02T00:29:39.263Z,48.05
2023-05-02T00:32:06.334Z,47.97
2023-05-02T00:34:33.589Z,48.07
2023-05-02T00:37:00.559Z,47.95
2023-05-02T00:39:27.478Z,48.10
2023-05-02T00:42:01.657Z,48.02
2023-05-02T00:44:28.595Z,48.24
2023-05-02T00:46:56.107Z,48.46
2023-05-02T00:49:23.149Z,48.55
2023-05-02T00:51:50.090Z,48.67
2023-05-02T00:54:18.292Z,48.78
2023-05-02T00:56:45.305Z,49.03
2023-05-02T00:59:12.177Z,49.13
2023-05-02T01:02:10.589Z,49.19
2023-05-02T01:05:03.831Z,49.43
2023-05-02T01:07:52.512Z,49.52
2023-05-02T01:10:31.554Z,49.54
2023-05-02T01:13:22.156Z,49.58
2023-05-02T01:15:50.853Z,49.62
2023-05-02T01:18:19.403Z,49.64
2023-05-02T01:20:46.948Z,49.85
2023-05-02T01:23:26.217Z,49.97
2023-05-02T01:26:02.451Z,50.04
2023-05-02T01:28:32.459Z,49.98
2023-05-02T01:30:59.284Z,49.98
2023-05-02T01:33:28.779Z,50.01
2023-05-02T01:35:56.096Z,50.11
2023-05-02T01:38:22.981Z,50.08
2023-05-02T01:40:50.637Z,50.06
2023-05-02T01:43:17.680Z,50.01
2023-05-02T01:45:45.699Z,49.96
2023-05-02T01:48:12.740Z,50.02
2023-05-02T01:50:39.614Z,50.30
2023-05-02T01:53:06.433Z,50.45
2023-05-02T01:55:33.854Z,50.52
2023-05-02T01:58:01.300Z,50.63
2023-05-02T02:00:28.249Z,50.99
2023-05-02T02:02:56.219Z,51.29
2023-05-02T02:05:23.373Z,51.57
2023-05-02T02:07:50.323Z,51.56
2023-05-02T02:10:18.099Z,51.54
2023-05-02T02:13:00.585Z,51.53
2023-05-02T02:15:28.657Z,51.67
2023-05-02T02:17:59.636Z,51.86
2023-05-02T02:20:30.021Z,52.11
2023-05-02T02:22:56.934Z,52.12
2023-05-02T02:25:24.381Z,52.19
2023-05-02T02:27:51.343Z,52.48
2023-05-02T02:30:18.247Z,52.57
2023-05-02T02:32:45.177Z,52.87
2023-05-02T02:35:12.245Z,52.97
2023-05-02T02:38:00.969Z,53.07
2023-05-02T02:40:49.930Z,52.93
2023-05-02T02:44:01.511Z,52.91
2023-05-02T02:46:49.531Z,53.01
2023-05-02T02:49:34.736Z,53.24
2023-05-02T02:52:13.759Z,53.36
2023-05-02T02:54:50.811Z,53.38
2023-05-02T02:57:29.051Z,53.42
2023-05-02T03:00:09.488Z,53.40
2023-05-02T03:02:37.333Z,53.39
2023-05-02T03:05:05.248Z,53.43
2023-05-02T03:07:32.743Z,53.54
2023-05-02T03:10:03.540Z,53.61
2023-05-02T03:12:31.853Z,53.60
2023-05-02T03:15:22.396Z,53.66
2023-05-02T03:17:49.593Z,53.82
2023-05-02T03:20:17.082Z,53.97
2023-05-02T03:22:44.169Z,53.96
2023-05-02T03:25:11.138Z,53.94
2023-05-02T03:27:38.715Z,54.08
2023-05-02T03:30:09.741Z,54.12
2023-05-02T03:32:37.902Z,54.21
2023-05-02T03:35:06.289Z,54.21
2023-05-02T03:37:35.451Z,54.31
2023-05-02T03:40:03.332Z,54.24
2023-05-02T03:42:30.535Z,54.10
2023-05-02T03:44:58.364Z,54.12
2023-05-02T03:47:26.564Z,54.04
2023-05-02T03:49:53.989Z,54.14
2023-05-02T03:52:21.242Z,54.37
2023-05-02T03:54:51.110Z,54.37
2023-05-02T03:57:18.996Z,54.37
2023-05-02T03:59:46.285Z,54.34
2023-05-02T04:02:16.666Z,54.44
2023-05-02T04:04:47.698Z,54.50
2023-05-02T04:07:19.676Z,54.51
2023-05-02T04:09:52.041Z,54.31
2023-05-02T04:12:19.189Z,54.12
2023-05-02T04:14:48.736Z,53.86
2023-05-02T04:17:17.023Z,53.34
2023-05-02T04:19:49.698Z,52.86
2023-05-02T04:22:17.643Z,52.37
2023-05-02T04:24:49.999Z,51.94
2023-05-02T04:27:17.086Z,51.64
2023-05-02T04:29:44.446Z,51.07
2023-05-02T04:32:13.229Z,50.39
2023-05-02T04:34:40.408Z,49.92
2023-05-02T04:37:07.537Z,49.13
2023-05-02T04:39:37.019Z,48.53
2023-05-02T04:42:12.227Z,47.30
2023-05-02T04:44:46.380Z,46.13
2023-05-02T04:47:13.954Z,45.30
2023-05-02T04:49:41.194Z,44.90
2023-05-02T04:52:08.447Z,44.47
2023-05-02T04:54:36.142Z,43.78
2023-05-02T04:57:03.940Z,43.49
2023-05-02T04:59:33.372Z,43.13
2023-05-02T05:02:03.155Z,43.04
2023-05-02T05:04:36.858Z,43.11
2023-05-02T05:07:04.546Z,42.92
2023-05-02T05:09:32.087Z,42.42
2023-05-02T05:11:58.993Z,42.55
2023-05-02T05:14:26.358Z,42.52
2023-05-02T05:16:54.740Z,42.10
2023-05-02T05:19:22.287Z,41.38
2023-05-02T05:21:50.201Z,41.24
2023-05-02T05:24:19.622Z,40.98
2023-05-02T05:26:47.388Z,40.82
2023-05-02T05:29:14.506Z,40.42
2023-05-02T05:31:42.679Z,40.40
2023-05-02T05:34:10.850Z,40.55
2023-05-02T05:36:40.314Z,40.12
2023-05-02T05:39:07.532Z,39.79
2023-05-02T05:41:35.926Z,39.38
2023-05-02T05:48:53.403Z,39.01
2023-05-02T05:56:13.344Z,38.23
2023-05-02T05:58:50.222Z,38.00
2023-05-02T06:01:18.997Z,37.94
2023-05-02T06:03:51.903Z,37.67
2023-05-02T06:06:25.224Z,37.44
2023-05-02T06:08:55.182Z,37.58
2023-05-02T06:11:25.004Z,37.64
2023-05-02T06:13:53.850Z,37.36
2023-05-02T06:16:22.574Z,37.54
2023-05-02T06:18:53.201Z,37.30
2023-05-02T06:21:21.921Z,37.24
2023-05-02T06:23:50.188Z,37.60
2023-05-02T06:26:20.210Z,37.64
2023-05-02T06:28:48.069Z,37.60
2023-05-02T06:31:17.123Z,37.72
2023-05-02T06:33:46.011Z,37.53
2023-05-02T06:36:15.549Z,37.34
2023-05-02T06:38:43.264Z,37.20
2023-05-02T06:41:18.902Z,37.37
2023-05-02T06:43:47.829Z,37.19
2023-05-02T06:46:16.845Z,37.26
2023-05-02T06:48:45.572Z,36.87
2023-05-02T06:51:17.021Z,36.59
2023-05-02T06:58:14.107Z,36.34
2023-05-02T07:00:50.683Z,36.40
2023-05-02T07:03:20.909Z,36.55
2023-05-02T07:05:50.909Z,36.54
2023-05-02T07:08:22.676Z,36.06
2023-05-02T07:10:52.819Z,36.09
2023-05-02T07:13:21.930Z,35.73
2023-05-02T07:15:50.511Z,35.36
2023-05-02T07:23:09.179Z,34.34
2023-05-02T07:25:36.859Z,33.88
2023-05-02T07:28:03.990Z,33.26
2023-05-02T07:30:31.078Z,32.84
2023-05-02T07:32:58.046Z,31.64
2023-05-02T07:35:25.354Z,31.23
2023-05-02T07:37:52.370Z,31.50
2023-05-02T07:40:19.285Z,31.10
2023-05-02T07:42:46.836Z,30.78
2023-05-02T07:45:13.794Z,30.94
2023-05-02T07:47:41.907Z,29.44
2023-05-02T07:50:09.307Z,29.10
2023-05-02T07:52:36.160Z,28.76
2023-05-02T07:55:03.185Z,28.93
2023-05-02T07:57:30.009Z,28.75
2023-05-02T08:04:48.512Z,27.06
2023-05-02T08:07:17.275Z,26.60
2023-05-02T08:09:45.769Z,26.22
2023-05-02T08:12:13.113Z,26.39
2023-05-02T08:14:40.085Z,26.23
2023-05-02T08:17:08.245Z,26.57
2023-05-02T08:19:35.869Z,26.55
2023-05-02T08:22:03.092Z,26.82
2023-05-02T08:24:31.346Z,27.42
2023-05-02T08:26:58.558Z,27.88
2023-05-02T08:29:26.037Z,26.95
2023-05-02T08:31:52.973Z,26.42
2023-05-02T08:34:20.316Z,26.89
2023-05-02T08:36:47.504Z,26.67
2023-05-02T08:39:14.942Z,26.11
2023-05-02T08:41:41.784Z,26.18
2023-05-02T08:48:44.260Z,26.09
2023-05-02T08:51:15.090Z,25.94
2023-05-02T08:53:41.929Z,25.40
2023-05-02T08:56:09.388Z,25.48
2023-05-02T08:58:37.079Z,26.03
2023-05-02T09:01:09.408Z,25.08
2023-05-02T09:03:37.106Z,25.08
2023-05-02T09:06:15.327Z,25.08
2023-05-02T09:08:43.121Z,24.67
2023-05-02T09:16:01.444Z,23.05
2023-05-02T09:18:29.258Z,22.73
2023-05-02T09:25:37.431Z,22.96
2023-05-02T09:28:04.400Z,22.73
2023-05-02T09:30:31.619Z,23.22
2023-05-02T09:32:58.562Z,22.56
2023-05-02T09:35:26.089Z,22.35
2023-05-02T09:42:36.387Z,22.59
2023-05-02T09:45:04.131Z,21.81
2023-05-02T09:47:31.174Z,21.68
2023-05-02T09:54:38.632Z,21.46
2023-05-02T09:57:07.282Z,20.80
2023-05-02T09:59:34.310Z,20.29
2023-05-02T10:02:05.257Z,20.58
2023-05-02T10:04:33.934Z,20.95
2023-05-02T10:07:02.352Z,20.71
2023-05-02T10:09:29.729Z,20.26
2023-05-02T10:11:56.859Z,20.08
2023-05-02T10:14:28.613Z,19.49
2023-05-02T10:17:05.949Z,19.37
2023-05-02T10:23:56.620Z,19.59
2023-05-02T10:26:23.629Z,19.59
2023-05-02T10:28:51.074Z,19.64
2023-05-02T10:31:18.515Z,20.03
2023-05-02T10:33:45.473Z,20.11
2023-05-02T10:36:15.975Z,19.42
2023-05-02T10:38:43.925Z,19.42
2023-05-02T10:41:13.915Z,19.42
2023-05-02T10:43:40.838Z,19.50
2023-05-02T10:46:33.296Z,19.53
2023-05-02T10:49:01.750Z,19.72
2023-05-02T10:51:32.143Z,19.95
2023-05-02T10:54:18.708Z,19.05
2023-05-02T10:57:15.092Z,18.78
2023-05-02T10:59:42.761Z,18.24
2023-05-02T11:02:28.158Z,17.78
2023-05-02T11:05:08.156Z,17.69
2023-05-02T11:07:36.057Z,18.04
2023-05-02T11:10:20.413Z,18.35
2023-05-02T11:12:49.043Z,18.90
2023-05-02T11:15:38.575Z,18.56
2023-05-02T11:18:12.955Z,18.78
2023-05-02T11:20:44.144Z,19.07
2023-05-02T11:23:15.472Z,19.10
2023-05-02T11:25:44.027Z,18.53
2023-05-02T11:28:48.149Z,17.95
2023-05-02T11:35:49.934Z,17.12
2023-05-02T11:38:20.554Z,17.33
2023-05-02T11:40:56.888Z,17.41
2023-05-02T11:43:30.710Z,16.97
2023-05-02T11:46:01.977Z,17.31
2023-05-02T11:48:32.582Z,16.61
2023-05-02T11:51:07.955Z,17.40
2023-05-02T11:53:40.988Z,17.73
2023-05-02T11:56:10.124Z,17.61
2023-05-02T11:58:40.318Z,17.71
2023-05-02T12:01:16.163Z,16.12
2023-05-02T12:03:49.102Z,15.36
2023-05-02T12:06:21.492Z,15.97
2023-05-02T12:08:56.002Z,16.42
2023-05-02T12:11:26.321Z,17.16
2023-05-02T12:13:56.600Z,17.87
2023-05-02T12:16:26.074Z,18.10
2023-05-02T12:18:59.008Z,16.61
2023-05-02T12:21:35.820Z,17.15
2023-05-02T12:24:05.602Z,17.05
2023-05-02T12:26:35.888Z,16.99
2023-05-02T12:29:07.985Z,17.07
2023-05-02T12:31:39.098Z,17.49
2023-05-02T12:34:09.226Z,17.24
2023-05-02T12:43:03.986Z,17.19
2023-05-02T12:45:34.060Z,16.16
2023-05-02T12:48:02.355Z,16.28
2023-05-02T12:50:37.252Z,16.31
2023-05-02T12:53:04.669Z,15.50
2023-05-02T12:55:32.479Z,15.96
2023-05-02T12:58:03.485Z,16.77
2023-05-02T13:00:38.538Z,16.78
2023-05-02T13:03:05.645Z,16.26
2023-05-02T13:05:32.781Z,16.71
2023-05-02T13:07:59.912Z,16.81
2023-05-02T13:10:27.878Z,16.92
2023-05-02T13:12:54.937Z,17.00
2023-05-02T13:15:22.053Z,17.20
2023-05-02T13:17:51.054Z,17.45
2023-05-02T13:20:18.998Z,16.22
2023-05-02T13:22:45.924Z,15.95
2023-05-02T13:25:12.819Z,16.39
2023-05-02T13:27:41.322Z,16.12
2023-05-02T13:30:09.974Z,16.51
2023-05-02T13:32:37.636Z,17.03
2023-05-02T13:35:05.917Z,16.53
2023-05-02T13:37:32.824Z,16.64
2023-05-02T13:39:59.856Z,17.40
2023-05-02T13:42:27.282Z,17.54
2023-05-02T13:44:54.222Z,17.80
2023-05-02T13:47:21.829Z,17.33
2023-05-02T13:49:48.865Z,17.30
2023-05-02T13:52:16.227Z,17.16
2023-05-02T13:54:43.056Z,16.18
2023-05-02T13:57:09.893Z,15.87
2023-05-02T13:59:36.749Z,16.29
2023-05-02T14:02:03.613Z,16.31
2023-05-02T14:04:30.563Z,16.16
2023-05-02T14:06:57.469Z,16.10
2023-05-02T14:09:24.479Z,16.38
2023-05-02T14:11:51.449Z,16.38
2023-05-02T14:14:18.493Z,16.52
2023-05-02T14:16:45.345Z,16.30
2023-05-02T14:19:12.317Z,16.15
2023-05-02T14:21:39.250Z,16.12
2023-05-02T14:24:06.575Z,15.92
2023-05-02T14:26:33.436Z,16.25
2023-05-02T14:29:00.856Z,16.24
2023-05-02T14:31:27.968Z,16.28
2023-05-02T14:33:55.004Z,16.62
2023-05-02T14:36:21.911Z,16.55
2023-05-02T14:38:48.805Z,16.96
2023-05-02T14:41:15.770Z,16.75
2023-05-02T14:43:42.730Z,16.64
2023-05-02T14:46:09.559Z,16.65
2023-05-02T14:48:36.535Z,17.26
2023-05-02T14:51:04.528Z,17.19
2023-05-02T14:53:31.857Z,17.35
2023-05-02T14:55:58.806Z,17.57
2023-05-02T14:58:25.773Z,17.32
2023-05-02T15:00:52.778Z,17.38
2023-05-02T15:03:20.036Z,17.29
2023-05-02T15:05:47.192Z,17.11
2023-05-02T15:08:14.274Z,17.25
2023-05-02T15:10:41.285Z,17.44
2023-05-02T15:13:09.077Z,17.39
2023-05-02T15:15:36.311Z,17.26
2023-05-02T15:18:03.776Z,17.21
2023-05-02T15:20:30.742Z,17.39
2023-05-02T15:23:03.383Z,17.43
2023-05-02T15:25:31.062Z,17.15
2023-05-02T15:27:58.034Z,17.36
2023-05-02T15:30:25.616Z,17.40
2023-05-02T15:32:52.609Z,17.52
2023-05-02T15:35:19.765Z,17.53
2023-05-02T15:37:46.712Z,17.72
2023-05-02T15:40:14.653Z,17.94
2023-05-02T15:42:42.031Z,17.99
2023-05-02T15:45:11.669Z,17.89
2023-05-02T15:47:38.536Z,17.88
2023-05-02T15:50:07.480Z,17.91
2023-05-02T15:52:34.521Z,18.02
2023-05-02T15:55:01.874Z,18.17
2023-05-02T15:57:28.821Z,18.46
2023-05-02T15:59:56.086Z,18.64
2023-05-02T16:02:23.223Z,18.61
2023-05-02T16:04:50.081Z,18.90
2023-05-02T16:07:16.973Z,19.03
2023-05-02T16:09:43.845Z,19.28
2023-05-02T16:12:11.265Z,19.51
2023-05-02T16:14:38.182Z,19.28
2023-05-02T16:17:05.140Z,19.28
2023-05-02T16:19:32.074Z,19.27
2023-05-02T16:21:59.033Z,19.24
2023-05-02T16:24:25.933Z,19.17
2023-05-02T16:26:52.983Z,19.51
2023-05-02T16:29:19.980Z,19.54
2023-05-02T16:31:46.846Z,19.47
2023-05-02T16:34:13.849Z,19.53
2023-05-02T16:36:40.757Z,19.72
2023-05-02T16:39:07.715Z,19.82
2023-05-02T16:41:36.214Z,20.16
2023-05-02T16:44:03.253Z,20.44
2023-05-02T16:46:31.827Z,20.53
2023-05-02T16:48:59.082Z,20.77
2023-05-02T16:51:25.975Z,21.16
2023-05-02T16:53:52.748Z,21.15
2023-05-02T16:56:19.919Z,21.19
2023-05-02T16:58:46.976Z,21.24
2023-05-02T17:01:13.840Z,21.35
2023-05-02T17:03:41.663Z,21.63
2023-05-02T17:06:08.764Z,21.93
2023-05-02T17:08:35.812Z,22.18
2023-05-02T17:11:02.701Z,22.53
2023-05-02T17:13:29.968Z,22.95
2023-05-02T17:15:57.709Z,23.25
2023-05-02T17:18:26.642Z,23.33
2023-05-02T17:20:54.905Z,23.65
2023-05-02T17:23:22.491Z,24.01
2023-05-02T17:25:51.747Z,24.06
2023-05-02T17:28:20.160Z,24.22
2023-05-02T17:30:47.869Z,24.57
2023-05-02T17:33:14.854Z,25.02
2023-05-02T17:35:42.452Z,25.29
2023-05-02T17:38:09.457Z,25.47
2023-05-02T17:40:38.139Z,25.45
2023-05-02T17:43:05.860Z,25.40
2023-05-02T17:45:32.999Z,25.51
2023-05-02T17:48:00.872Z,25.45
2023-05-02T17:50:29.089Z,25.67
2023-05-02T17:52:56.258Z,25.89
2023-05-02T17:55:23.194Z,26.10
2023-05-02T17:57:50.090Z,26.41
2023-05-02T18:00:17.113Z,26.54
2023-05-02T18:02:44.213Z,26.53
2023-05-02T18:05:11.247Z,26.95
2023-05-02T18:07:38.016Z,27.04
2023-05-02T18:10:06.875Z,27.34
2023-05-02T18:12:33.808Z,27.50
2023-05-02T18:15:02.216Z,27.53
2023-05-02T18:17:29.574Z,27.62
2023-05-02T18:19:56.634Z,27.70
2023-05-02T18:22:23.589Z,27.70
2023-05-02T18:24:50.663Z,27.75
2023-05-02T18:27:17.864Z,27.89
2023-05-02T18:29:44.779Z,27.83
2023-05-02T18:32:11.610Z,27.94
2023-05-02T18:34:39.181Z,27.93
2023-05-02T18:37:07.170Z,27.84
2023-05-02T18:39:34.425Z,27.82
2023-05-02T18:42:04.904Z,27.74
2023-05-02T18:44:31.853Z,27.83
2023-05-02T18:46:59.094Z,27.91
2023-05-02T18:49:26.446Z,27.66
2023-05-02T18:51:54.576Z,27.34
2023-05-02T18:54:23.529Z,27.26
2023-05-02T18:56:50.773Z,27.26
2023-05-02T18:59:19.038Z,27.27
2023-05-02T19:01:48.492Z,27.07
2023-05-02T19:04:15.467Z,26.82
2023-05-02T19:06:42.504Z,26.83
2023-05-02T19:09:09.778Z,26.73
2023-05-02T19:11:36.788Z,26.80
2023-05-02T19:14:03.835Z,26.79
2023-05-02T19:16:31.583Z,26.82
2023-05-02T19:18:58.709Z,26.93
2023-05-02T19:21:26.052Z,26.82
2023-05-02T19:23:53.018Z,26.85
2023-05-02T19:26:20.258Z,26.82
2023-05-02T19:28:47.193Z,26.71
2023-05-02T19:31:16.007Z,26.77
2023-05-02T19:33:51.792Z,26.81
2023-05-02T19:36:19.692Z,26.53
2023-05-02T19:38:58.451Z,26.60
2023-05-02T19:41:25.895Z,26.39
2023-05-02T19:43:52.950Z,26.42
2023-05-02T19:46:20.022Z,26.23
2023-05-02T19:48:46.916Z,26.29
2023-05-02T19:51:14.172Z,26.25
2023-05-02T19:53:40.975Z,26.28
2023-05-02T19:56:08.465Z,26.27
2023-05-02T19:58:35.501Z,26.13
2023-05-02T20:01:02.592Z,26.23
2023-05-02T20:03:29.689Z,26.00
2023-05-02T20:05:58.689Z,25.87
2023-05-02T20:08:28.194Z,25.88
2023-05-02T20:10:56.106Z,25.88
2023-05-02T20:13:22.995Z,25.75
2023-05-02T20:15:51.088Z,25.56
2023-05-02T20:18:18.144Z,25.64
2023-05-02T20:20:45.798Z,25.50
2023-05-02T20:23:13.613Z,25.58
2023-05-02T20:25:41.910Z,25.64
2023-05-02T20:28:10.028Z,25.81
2023-05-02T20:30:39.176Z,25.96
2023-05-02T20:33:14.851Z,26.18
2023-05-02T20:35:43.558Z,26.32
2023-05-02T20:38:11.236Z,26.41
2023-05-02T20:40:40.114Z,26.64
2023-05-02T20:43:07.565Z,26.80
2023-05-02T20:45:34.379Z,26.98
2023-05-02T20:48:01.216Z,27.36
2023-05-02T20:50:28.805Z,27.48
2023-05-02T20:52:55.859Z,27.57
2023-05-02T20:55:23.134Z,27.54
2023-05-02T20:57:53.593Z,27.79
2023-05-02T21:00:23.754Z,27.85
2023-05-02T21:02:50.785Z,28.07
2023-05-02T21:05:18.059Z,28.31
2023-05-02T21:07:45.106Z,28.46
2023-05-02T21:10:12.389Z,28.59
2023-05-02T21:12:39.805Z,28.78
2023-05-02T21:15:08.060Z,28.89
2023-05-02T21:17:35.057Z,28.92
2023-05-02T21:20:02.417Z,29.20
2023-05-02T21:22:29.852Z,29.30
2023-05-02T21:24:57.109Z,29.42
2023-05-02T21:27:24.431Z,29.56
2023-05-02T21:29:51.522Z,29.71
2023-05-02T21:32:18.443Z,29.65
2023-05-02T21:34:45.880Z,29.76
2023-05-02T21:37:12.814Z,29.84
2023-05-02T21:39:39.573Z,29.94
2023-05-02T21:42:06.853Z,30.10
2023-05-02T21:44:33.796Z,30.41
2023-05-02T21:47:00.736Z,30.46
2023-05-02T21:49:30.185Z,30.51
2023-05-02T21:51:58.452Z,30.60
2023-05-02T21:54:26.012Z,30.59
2023-05-02T21:56:54.156Z,30.76
2023-05-02T21:59:21.459Z,30.97
2023-05-02T22:01:48.609Z,30.97
2023-05-02T22:04:16.523Z,31.18
2023-05-02T22:06:54.919Z,31.31
2023-05-02T22:09:22.528Z,31.55
2023-05-02T22:11:49.448Z,31.60
2023-05-02T22:14:18.510Z,31.69
2023-05-02T22:16:46.420Z,31.88
2023-05-02T22:19:16.312Z,32.01
2023-05-02T22:21:44.425Z,32.25
2023-05-02T22:24:11.644Z,32.24
2023-05-02T22:26:38.741Z,32.34
2023-05-02T22:29:05.663Z,32.48
2023-05-02T22:31:32.621Z,32.85
2023-05-02T22:33:59.657Z,33.46
2023-05-02T22:36:27.889Z,33.67
2023-05-02T22:38:54.765Z,33.63
2023-05-02T22:41:21.607Z,33.83
2023-05-02T22:43:48.731Z,34.03
2023-05-02T22:46:15.632Z,34.09
2023-05-02T22:48:42.495Z,34.21
2023-05-02T22:51:09.499Z,34.36
2023-05-02T22:53:36.422Z,34.57
2023-05-02T22:56:03.604Z,34.74
2023-05-02T22:58:30.432Z,34.97
2023-05-02T23:00:57.355Z,35.10
2023-05-02T23:03:24.347Z,35.22
2023-05-02T23:05:51.784Z,35.41
2023-05-02T23:08:18.700Z,35.41
2023-05-02T23:10:46.016Z,35.53
2023-05-02T23:13:12.795Z,35.72
2023-05-02T23:15:40.213Z,35.74
2023-05-02T23:18:07.236Z,35.82
2023-05-02T23:20:34.131Z,35.93
2023-05-02T23:23:00.937Z,36.22
2023-05-02T23:25:27.902Z,36.57
2023-05-02T23:27:55.054Z,36.76
2023-05-02T23:30:23.771Z,36.89
2023-05-02T23:32:51.835Z,36.79
2023-05-02T23:35:18.892Z,36.72
2023-05-02T23:37:46.750Z,36.86
2023-05-02T23:40:14.149Z,37.06
2023-05-02T23:42:43.946Z,37.32
2023-05-02T23:45:13.931Z,37.51
2023-05-02T23:47:40.820Z,37.65
2023-05-02T23:50:08.702Z,37.88
2023-05-02T23:52:36.025Z,38.05
2023-05-02T23:55:03.379Z,38.39
2023-05-02T23:57:31.034Z,38.59
2023-05-02T23:59:59.154Z,38.56
